sensor_id;sensor_type;location;lat;lon;timestamp;P1;durP1;ratioP1;P2;durP2;ratioP2
10313;SDS011;5202;49.138;10.090;2023-06-01T00:00:46;3.72;;;2.70;;
10313;SDS011;5202;49.138;10.090;2023-06-01T00:03:17;4.07;;;2.50;;
10313;SDS011;5202;49.138;10.090;2023-06-01T00:05:46;4.47;;;2.70;;
10313;SDS011;5202;49.138;10.090;2023-06-01T00:08:14;6.43;;;2.70;;
10313;SDS011;5202;49.138;10.090;2023-06-01T00:10:42;3.80;;;2.78;;
10313;SDS011;5202;49.138;10.090;2023-06-01T00:13:12;7.57;;;2.75;;
10313;SDS011;5202;49.138;10.090;2023-06-01T00:15:40;4.57;;;2.58;;
10313;SDS011;5202;49.138;10.090;2023-06-01T00:18:10;6.43;;;2.92;;
10313;SDS011;5202;49.138;10.090;2023-06-01T00:20:39;5.25;;;3.10;;
10313;SDS011;5202;49.138;10.090;2023-06-01T00:23:07;6.97;;;3.03;;
10313;SDS011;5202;49.138;10.090;2023-06-01T00:25:36;4.07;;;2.85;;
10313;SDS011;5202;49.138;10.090;2023-06-01T00:28:04;3.42;;;2.38;;
10313;SDS011;5202;49.138;10.090;2023-06-01T00:30:34;6.70;;;3.22;;
10313;SDS011;5202;49.138;10.090;2023-06-01T00:33:02;4.72;;;2.83;;
10313;SDS011;5202;49.138;10.090;2023-06-01T00:35:31;4.40;;;2.85;;
10313;SDS011;5202;49.138;10.090;2023-06-01T00:37:59;7.65;;;2.70;;
10313;SDS011;5202;49.138;10.090;2023-06-01T00:40:27;3.78;;;2.42;;
10313;SDS011;5202;49.138;10.090;2023-06-01T00:42:56;7.80;;;3.17;;
10313;SDS011;5202;49.138;10.090;2023-06-01T00:45:24;3.55;;;2.63;;
10313;SDS011;5202;49.138;10.090;2023-06-01T00:47:54;6.03;;;3.28;;
10313;SDS011;5202;49.138;10.090;2023-06-01T00:50:22;5.50;;;3.15;;
10313;SDS011;5202;49.138;10.090;2023-06-01T00:52:51;5.47;;;3.43;;
10313;SDS011;5202;49.138;10.090;2023-06-01T00:55:20;3.92;;;2.58;;
10313;SDS011;5202;49.138;10.090;2023-06-01T00:57:48;4.63;;;2.87;;
10313;SDS011;5202;49.138;10.090;2023-06-01T01:00:18;4.23;;;2.90;;
10313;SDS011;5202;49.138;10.090;2023-06-01T01:02:49;5.00;;;2.80;;
10313;SDS011;5202;49.138;10.090;2023-06-01T01:05:19;5.60;;;2.87;;
10313;SDS011;5202;49.138;10.090;2023-06-01T01:07:55;6.07;;;2.80;;
10313;SDS011;5202;49.138;10.090;2023-06-01T01:10:29;5.97;;;3.17;;
10313;SDS011;5202;49.138;10.090;2023-06-01T01:13:03;7.47;;;3.10;;
10313;SDS011;5202;49.138;10.090;2023-06-01T01:15:40;4.50;;;2.90;;
10313;SDS011;5202;49.138;10.090;2023-06-01T01:18:19;8.60;;;3.07;;
10313;SDS011;5202;49.138;10.090;2023-06-01T01:21:01;7.67;;;3.30;;
10313;SDS011;5202;49.138;10.090;2023-06-01T01:23:55;4.57;;;3.10;;
10313;SDS011;5202;49.138;10.090;2023-06-01T01:26:46;7.07;;;2.97;;
10313;SDS011;5202;49.138;10.090;2023-06-01T01:29:36;7.40;;;3.27;;
10313;SDS011;5202;49.138;10.090;2023-06-01T01:32:06;3.93;;;2.90;;
10313;SDS011;5202;49.138;10.090;2023-06-01T01:34:36;5.00;;;3.03;;
10313;SDS011;5202;49.138;10.090;2023-06-01T01:37:08;5.43;;;3.30;;
10313;SDS011;5202;49.138;10.090;2023-06-01T01:39:36;6.10;;;3.47;;
10313;SDS011;5202;49.138;10.090;2023-06-01T01:42:05;5.07;;;3.00;;
10313;SDS011;5202;49.138;10.090;2023-06-01T01:44:34;6.00;;;3.10;;
10313;SDS011;5202;49.138;10.090;2023-06-01T01:47:05;5.90;;;3.40;;
10313;SDS011;5202;49.138;10.090;2023-06-01T01:49:41;5.37;;;3.33;;
10313;SDS011;5202;49.138;10.090;2023-06-01T01:52:12;11.67;;;4.60;;
10313;SDS011;5202;49.138;10.090;2023-06-01T01:54:46;5.20;;;3.40;;
10313;SDS011;5202;49.138;10.090;2023-06-01T01:57:17;7.67;;;3.27;;
10313;SDS011;5202;49.138;10.090;2023-06-01T01:59:48;5.40;;;3.07;;
10313;SDS011;5202;49.138;10.090;2023-06-01T02:02:17;4.23;;;3.40;;
10313;SDS011;5202;49.138;10.090;2023-06-01T02:05:11;5.80;;;3.57;;
10313;SDS011;5202;49.138;10.090;2023-06-01T02:07:41;5.70;;;3.10;;
10313;SDS011;5202;49.138;10.090;2023-06-01T02:10:10;5.53;;;3.70;;
10313;SDS011;5202;49.138;10.090;2023-06-01T02:12:39;6.83;;;3.20;;
10313;SDS011;5202;49.138;10.090;2023-06-01T02:15:09;4.50;;;3.20;;
10313;SDS011;5202;49.138;10.090;2023-06-01T02:17:37;5.00;;;3.40;;
10313;SDS011;5202;49.138;10.090;2023-06-01T02:20:09;7.43;;;3.87;;
10313;SDS011;5202;49.138;10.090;2023-06-01T02:22:38;4.47;;;3.30;;
10313;SDS011;5202;49.138;10.090;2023-06-01T02:25:07;8.27;;;3.57;;
10313;SDS011;5202;49.138;10.090;2023-06-01T02:27:36;6.93;;;3.47;;
10313;SDS011;5202;49.138;10.090;2023-06-01T02:30:06;5.90;;;3.50;;
10313;SDS011;5202;49.138;10.090;2023-06-01T02:32:37;4.90;;;3.53;;
10313;SDS011;5202;49.138;10.090;2023-06-01T02:35:06;5.03;;;3.00;;
10313;SDS011;5202;49.138;10.090;2023-06-01T02:37:35;7.33;;;3.37;;
10313;SDS011;5202;49.138;10.090;2023-06-01T02:40:05;6.63;;;3.67;;
10313;SDS011;5202;49.138;10.090;2023-06-01T02:42:38;5.60;;;4.00;;
10313;SDS011;5202;49.138;10.090;2023-06-01T02:45:07;8.63;;;3.50;;
10313;SDS011;5202;49.138;10.090;2023-06-01T02:47:38;6.07;;;3.37;;
10313;SDS011;5202;49.138;10.090;2023-06-01T02:50:06;5.87;;;3.70;;
10313;SDS011;5202;49.138;10.090;2023-06-01T02:52:40;6.47;;;3.30;;
10313;SDS011;5202;49.138;10.090;2023-06-01T02:55:08;6.67;;;3.60;;
10313;SDS011;5202;49.138;10.090;2023-06-01T02:57:55;5.50;;;3.50;;
10313;SDS011;5202;49.138;10.090;2023-06-01T03:00:25;5.97;;;3.20;;
10313;SDS011;5202;49.138;10.090;2023-06-01T03:02:54;5.70;;;3.70;;
10313;SDS011;5202;49.138;10.090;2023-06-01T03:05:23;6.53;;;3.43;;
10313;SDS011;5202;49.138;10.090;2023-06-01T03:08:12;7.67;;;3.53;;
10313;SDS011;5202;49.138;10.090;2023-06-01T03:10:40;5.93;;;3.77;;
10313;SDS011;5202;49.138;10.090;2023-06-01T03:13:11;8.20;;;3.70;;
10313;SDS011;5202;49.138;10.090;2023-06-01T03:15:42;6.80;;;3.80;;
10313;SDS011;5202;49.138;10.090;2023-06-01T03:18:11;6.13;;;3.70;;
10313;SDS011;5202;49.138;10.090;2023-06-01T03:20:40;4.40;;;3.33;;
10313;SDS011;5202;49.138;10.090;2023-06-01T03:23:08;7.20;;;3.47;;
10313;SDS011;5202;49.138;10.090;2023-06-01T03:25:37;5.80;;;3.47;;
10313;SDS011;5202;49.138;10.090;2023-06-01T03:28:06;6.30;;;3.70;;
10313;SDS011;5202;49.138;10.090;2023-06-01T03:30:39;6.77;;;3.63;;
10313;SDS011;5202;49.138;10.090;2023-06-01T03:33:10;8.47;;;3.63;;
10313;SDS011;5202;49.138;10.090;2023-06-01T03:35:38;8.17;;;5.90;;
10313;SDS011;5202;49.138;10.090;2023-06-01T03:38:30;5.37;;;3.97;;
10313;SDS011;5202;49.138;10.090;2023-06-01T03:40:59;8.00;;;3.90;;
10313;SDS011;5202;49.138;10.090;2023-06-01T03:43:27;8.77;;;3.97;;
10313;SDS011;5202;49.138;10.090;2023-06-01T03:45:56;4.47;;;3.07;;
10313;SDS011;5202;49.138;10.090;2023-06-01T03:48:25;4.23;;;3.53;;
10313;SDS011;5202;49.138;10.090;2023-06-01T03:50:54;6.40;;;3.90;;
10313;SDS011;5202;49.138;10.090;2023-06-01T03:53:23;4.60;;;3.87;;
10313;SDS011;5202;49.138;10.090;2023-06-01T03:55:52;6.73;;;3.60;;
10313;SDS011;5202;49.138;10.090;2023-06-01T03:58:35;5.10;;;3.57;;
10313;SDS011;5202;49.138;10.090;2023-06-01T04:01:09;4.23;;;3.47;;
10313;SDS011;5202;49.138;10.090;2023-06-01T04:03:40;4.87;;;2.93;;
10313;SDS011;5202;49.138;10.090;2023-06-01T04:06:20;6.03;;;4.10;;
10313;SDS011;5202;49.138;10.090;2023-06-01T04:08:49;5.33;;;3.43;;
10313;SDS011;5202;49.138;10.090;2023-06-01T04:11:22;8.23;;;3.93;;
10313;SDS011;5202;49.138;10.090;2023-06-01T04:13:52;5.43;;;3.57;;
10313;SDS011;5202;49.138;10.090;2023-06-01T04:16:21;6.50;;;3.60;;
10313;SDS011;5202;49.138;10.090;2023-06-01T04:18:51;5.43;;;3.70;;
10313;SDS011;5202;49.138;10.090;2023-06-01T04:21:23;6.93;;;3.80;;
10313;SDS011;5202;49.138;10.090;2023-06-01T04:23:51;6.77;;;3.63;;
10313;SDS011;5202;49.138;10.090;2023-06-01T04:26:20;6.47;;;3.10;;
10313;SDS011;5202;49.138;10.090;2023-06-01T04:28:50;6.87;;;3.80;;
10313;SDS011;5202;49.138;10.090;2023-06-01T04:31:23;6.40;;;3.53;;
10313;SDS011;5202;49.138;10.090;2023-06-01T04:33:53;7.07;;;3.63;;
10313;SDS011;5202;49.138;10.090;2023-06-01T04:36:24;8.37;;;3.97;;
10313;SDS011;5202;49.138;10.090;2023-06-01T04:38:57;6.83;;;3.63;;
10313;SDS011;5202;49.138;10.090;2023-06-01T04:41:26;5.03;;;3.63;;
10313;SDS011;5202;49.138;10.090;2023-06-01T04:43:57;11.43;;;3.43;;
10313;SDS011;5202;49.138;10.090;2023-06-01T04:46:26;5.00;;;3.40;;
10313;SDS011;5202;49.138;10.090;2023-06-01T04:48:59;5.20;;;4.13;;
10313;SDS011;5202;49.138;10.090;2023-06-01T04:51:28;7.30;;;3.60;;
10313;SDS011;5202;49.138;10.090;2023-06-01T04:53:58;8.27;;;4.03;;
10313;SDS011;5202;49.138;10.090;2023-06-01T04:56:27;10.80;;;4.50;;
10313;SDS011;5202;49.138;10.090;2023-06-01T04:58:56;8.80;;;4.13;;
10313;SDS011;5202;49.138;10.090;2023-06-01T05:01:27;5.57;;;3.73;;
10313;SDS011;5202;49.138;10.090;2023-06-01T05:03:58;7.57;;;3.93;;
10313;SDS011;5202;49.138;10.090;2023-06-01T05:06:27;5.83;;;3.50;;
10313;SDS011;5202;49.138;10.090;2023-06-01T05:08:55;6.17;;;3.90;;
10313;SDS011;5202;49.138;10.090;2023-06-01T05:11:24;8.27;;;3.50;;
10313;SDS011;5202;49.138;10.090;2023-06-01T05:13:52;4.97;;;3.47;;
10313;SDS011;5202;49.138;10.090;2023-06-01T05:16:28;7.87;;;4.17;;
10313;SDS011;5202;49.138;10.090;2023-06-01T05:18:58;7.30;;;4.17;;
10313;SDS011;5202;49.138;10.090;2023-06-01T05:21:27;9.17;;;3.57;;
10313;SDS011;5202;49.138;10.090;2023-06-01T05:23:55;6.40;;;4.33;;
10313;SDS011;5202;49.138;10.090;2023-06-01T05:26:23;5.97;;;3.90;;
10313;SDS011;5202;49.138;10.090;2023-06-01T05:28:53;6.83;;;3.70;;
10313;SDS011;5202;49.138;10.090;2023-06-01T05:31:21;6.43;;;4.07;;
10313;SDS011;5202;49.138;10.090;2023-06-01T05:33:53;5.53;;;3.57;;
10313;SDS011;5202;49.138;10.090;2023-06-01T05:36:23;7.20;;;4.20;;
10313;SDS011;5202;49.138;10.090;2023-06-01T05:38:52;6.60;;;4.30;;
10313;SDS011;5202;49.138;10.090;2023-06-01T05:41:20;4.57;;;3.72;;
10313;SDS011;5202;49.138;10.090;2023-06-01T05:43:49;8.98;;;4.22;;
10313;SDS011;5202;49.138;10.090;2023-06-01T05:46:18;9.20;;;4.10;;
10313;SDS011;5202;49.138;10.090;2023-06-01T05:48:46;6.15;;;3.75;;
10313;SDS011;5202;49.138;10.090;2023-06-01T05:51:15;7.95;;;3.60;;
10313;SDS011;5202;49.138;10.090;2023-06-01T05:53:45;8.00;;;3.80;;
10313;SDS011;5202;49.138;10.090;2023-06-01T05:56:13;6.88;;;3.22;;
10313;SDS011;5202;49.138;10.090;2023-06-01T05:58:42;6.63;;;3.38;;
10313;SDS011;5202;49.138;10.090;2023-06-01T06:01:12;7.57;;;3.42;;
10313;SDS011;5202;49.138;10.090;2023-06-01T06:03:46;6.35;;;3.17;;
10313;SDS011;5202;49.138;10.090;2023-06-01T06:06:25;10.25;;;3.13;;
10313;SDS011;5202;49.138;10.090;2023-06-01T06:08:55;6.05;;;3.53;;
10313;SDS011;5202;49.138;10.090;2023-06-01T06:11:23;8.60;;;3.47;;
10313;SDS011;5202;49.138;10.090;2023-06-01T06:13:52;6.07;;;3.22;;
10313;SDS011;5202;49.138;10.090;2023-06-01T06:16:21;6.70;;;3.40;;
10313;SDS011;5202;49.138;10.090;2023-06-01T06:18:50;4.53;;;3.20;;
10313;SDS011;5202;49.138;10.090;2023-06-01T06:21:18;6.25;;;3.30;;
10313;SDS011;5202;49.138;10.090;2023-06-01T06:23:46;4.20;;;3.33;;
10313;SDS011;5202;49.138;10.090;2023-06-01T06:26:17;5.95;;;3.55;;
10313;SDS011;5202;49.138;10.090;2023-06-01T06:28:46;6.05;;;3.25;;
10313;SDS011;5202;49.138;10.090;2023-06-01T06:31:14;6.50;;;3.10;;
10313;SDS011;5202;49.138;10.090;2023-06-01T06:33:43;6.82;;;3.03;;
10313;SDS011;5202;49.138;10.090;2023-06-01T06:36:11;3.63;;;2.63;;
10313;SDS011;5202;49.138;10.090;2023-06-01T06:38:40;6.57;;;2.92;;
10313;SDS011;5202;49.138;10.090;2023-06-01T06:41:08;11.07;;;2.92;;
10313;SDS011;5202;49.138;10.090;2023-06-01T06:43:38;6.45;;;3.35;;
10313;SDS011;5202;49.138;10.090;2023-06-01T06:46:07;2.42;;;2.20;;
10313;SDS011;5202;49.138;10.090;2023-06-01T06:48:35;4.82;;;2.30;;
10313;SDS011;5202;49.138;10.090;2023-06-01T06:51:04;4.65;;;2.25;;
10313;SDS011;5202;49.138;10.090;2023-06-01T06:53:32;6.32;;;2.53;;
10313;SDS011;5202;49.138;10.090;2023-06-01T06:56:00;8.68;;;2.70;;
10313;SDS011;5202;49.138;10.090;2023-06-01T06:58:29;3.83;;;2.28;;
10313;SDS011;5202;49.138;10.090;2023-06-01T07:00:58;3.88;;;2.13;;
10313;SDS011;5202;49.138;10.090;2023-06-01T07:03:31;2.88;;;2.10;;
10313;SDS011;5202;49.138;10.090;2023-06-01T07:05:59;2.25;;;2.00;;
10313;SDS011;5202;49.138;10.090;2023-06-01T07:08:28;3.80;;;2.30;;
10313;SDS011;5202;49.138;10.090;2023-06-01T07:11:00;2.63;;;1.77;;
10313;SDS011;5202;49.138;10.090;2023-06-01T07:13:29;3.03;;;2.50;;
10313;SDS011;5202;49.138;10.090;2023-06-01T07:15:59;4.20;;;2.00;;
10313;SDS011;5202;49.138;10.090;2023-06-01T07:18:27;5.38;;;2.10;;
10313;SDS011;5202;49.138;10.090;2023-06-01T07:20:56;7.68;;;2.47;;
10313;SDS011;5202;49.138;10.090;2023-06-01T07:23:25;4.68;;;2.40;;
10313;SDS011;5202;49.138;10.090;2023-06-01T07:25:54;3.90;;;2.28;;
10313;SDS011;5202;49.138;10.090;2023-06-01T07:28:22;5.40;;;2.28;;
10313;SDS011;5202;49.138;10.090;2023-06-01T07:30:51;2.67;;;2.30;;
10313;SDS011;5202;49.138;10.090;2023-06-01T07:33:21;3.85;;;2.80;;
10313;SDS011;5202;49.138;10.090;2023-06-01T07:35:50;4.63;;;2.10;;
10313;SDS011;5202;49.138;10.090;2023-06-01T07:38:19;7.38;;;2.63;;
10313;SDS011;5202;49.138;10.090;2023-06-01T07:40:49;5.57;;;3.10;;
10313;SDS011;5202;49.138;10.090;2023-06-01T07:43:18;6.03;;;2.92;;
10313;SDS011;5202;49.138;10.090;2023-06-01T07:45:46;5.90;;;2.50;;
10313;SDS011;5202;49.138;10.090;2023-06-01T07:48:14;6.05;;;2.60;;
10313;SDS011;5202;49.138;10.090;2023-06-01T07:50:44;3.83;;;2.75;;
10313;SDS011;5202;49.138;10.090;2023-06-01T07:53:12;4.38;;;2.45;;
10313;SDS011;5202;49.138;10.090;2023-06-01T07:55:41;5.07;;;2.30;;
10313;SDS011;5202;49.138;10.090;2023-06-01T07:58:10;5.15;;;2.40;;
10313;SDS011;5202;49.138;10.090;2023-06-01T08:00:38;6.70;;;2.40;;
10313;SDS011;5202;49.138;10.090;2023-06-01T08:03:06;6.30;;;2.50;;
10313;SDS011;5202;49.138;10.090;2023-06-01T08:05:35;4.15;;;2.50;;
10313;SDS011;5202;49.138;10.090;2023-06-01T08:08:12;2.70;;;2.25;;
10313;SDS011;5202;49.138;10.090;2023-06-01T08:10:42;3.67;;;2.22;;
10313;SDS011;5202;49.138;10.090;2023-06-01T08:13:10;4.00;;;2.50;;
10313;SDS011;5202;49.138;10.090;2023-06-01T08:15:38;5.43;;;2.78;;
10313;SDS011;5202;49.138;10.090;2023-06-01T08:18:08;5.53;;;1.83;;
10313;SDS011;5202;49.138;10.090;2023-06-01T08:20:37;2.60;;;2.10;;
10313;SDS011;5202;49.138;10.090;2023-06-01T08:23:05;3.53;;;2.65;;
10313;SDS011;5202;49.138;10.090;2023-06-01T08:25:35;5.32;;;2.90;;
10313;SDS011;5202;49.138;10.090;2023-06-01T08:28:03;3.97;;;2.65;;
10313;SDS011;5202;49.138;10.090;2023-06-01T08:30:31;5.18;;;2.60;;
10313;SDS011;5202;49.138;10.090;2023-06-01T08:33:02;3.47;;;2.13;;
10313;SDS011;5202;49.138;10.090;2023-06-01T08:35:30;4.95;;;2.45;;
10313;SDS011;5202;49.138;10.090;2023-06-01T08:37:59;4.60;;;2.75;;
10313;SDS011;5202;49.138;10.090;2023-06-01T08:40:28;7.05;;;2.42;;
10313;SDS011;5202;49.138;10.090;2023-06-01T08:43:02;4.03;;;2.90;;
10313;SDS011;5202;49.138;10.090;2023-06-01T08:45:38;4.65;;;2.95;;
10313;SDS011;5202;49.138;10.090;2023-06-01T08:48:08;4.00;;;2.65;;
10313;SDS011;5202;49.138;10.090;2023-06-01T08:50:37;5.07;;;2.92;;
10313;SDS011;5202;49.138;10.090;2023-06-01T08:53:06;5.88;;;2.75;;
10313;SDS011;5202;49.138;10.090;2023-06-01T08:55:34;5.25;;;2.90;;
10313;SDS011;5202;49.138;10.090;2023-06-01T08:58:04;2.90;;;2.40;;
10313;SDS011;5202;49.138;10.090;2023-06-01T09:00:33;3.00;;;2.50;;
10313;SDS011;5202;49.138;10.090;2023-06-01T09:03:02;4.30;;;2.83;;
10313;SDS011;5202;49.138;10.090;2023-06-01T09:05:32;4.38;;;2.95;;
10313;SDS011;5202;49.138;10.090;2023-06-01T09:08:00;5.80;;;3.08;;
10313;SDS011;5202;49.138;10.090;2023-06-01T09:10:29;4.32;;;3.13;;
10313;SDS011;5202;49.138;10.090;2023-06-01T09:12:58;6.30;;;3.03;;
10313;SDS011;5202;49.138;10.090;2023-06-01T09:15:29;4.35;;;3.20;;
10313;SDS011;5202;49.138;10.090;2023-06-01T09:18:07;4.22;;;3.10;;
10313;SDS011;5202;49.138;10.090;2023-06-01T09:20:38;8.25;;;3.05;;
10313;SDS011;5202;49.138;10.090;2023-06-01T09:23:07;7.10;;;4.07;;
10313;SDS011;5202;49.138;10.090;2023-06-01T09:25:35;6.28;;;3.00;;
10313;SDS011;5202;49.138;10.090;2023-06-01T09:28:04;4.30;;;3.05;;
10313;SDS011;5202;49.138;10.090;2023-06-01T09:30:38;7.00;;;3.25;;
10313;SDS011;5202;49.138;10.090;2023-06-01T09:33:09;6.38;;;2.92;;
10313;SDS011;5202;49.138;10.090;2023-06-01T09:35:41;4.78;;;2.78;;
10313;SDS011;5202;49.138;10.090;2023-06-01T09:38:11;4.50;;;2.38;;
10313;SDS011;5202;49.138;10.090;2023-06-01T09:40:55;4.38;;;2.80;;
10313;SDS011;5202;49.138;10.090;2023-06-01T09:43:24;4.35;;;2.53;;
10313;SDS011;5202;49.138;10.090;2023-06-01T09:46:07;4.72;;;3.30;;
10313;SDS011;5202;49.138;10.090;2023-06-01T09:48:40;9.07;;;2.78;;
10313;SDS011;5202;49.138;10.090;2023-06-01T09:51:20;6.53;;;2.58;;
10313;SDS011;5202;49.138;10.090;2023-06-01T09:53:52;3.22;;;2.30;;
10313;SDS011;5202;49.138;10.090;2023-06-01T09:56:20;5.30;;;2.72;;
10313;SDS011;5202;49.138;10.090;2023-06-01T09:58:50;5.03;;;2.75;;
10313;SDS011;5202;49.138;10.090;2023-06-01T10:01:26;3.42;;;2.67;;
10313;SDS011;5202;49.138;10.090;2023-06-01T10:04:00;6.10;;;3.03;;
10313;SDS011;5202;49.138;10.090;2023-06-01T10:06:43;4.25;;;2.50;;
10313;SDS011;5202;49.138;10.090;2023-06-01T10:09:13;6.93;;;2.40;;
10313;SDS011;5202;49.138;10.090;2023-06-01T10:11:44;5.57;;;2.30;;
10313;SDS011;5202;49.138;10.090;2023-06-01T10:14:13;4.25;;;2.90;;
10313;SDS011;5202;49.138;10.090;2023-06-01T10:16:44;2.72;;;2.30;;
10313;SDS011;5202;49.138;10.090;2023-06-01T10:19:12;3.00;;;2.38;;
10313;SDS011;5202;49.138;10.090;2023-06-01T10:21:40;7.90;;;2.70;;
10313;SDS011;5202;49.138;10.090;2023-06-01T10:24:12;5.07;;;2.13;;
10313;SDS011;5202;49.138;10.090;2023-06-01T10:26:42;2.58;;;2.10;;
10313;SDS011;5202;49.138;10.090;2023-06-01T10:29:19;4.95;;;2.25;;
10313;SDS011;5202;49.138;10.090;2023-06-01T10:31:49;5.57;;;2.20;;
10313;SDS011;5202;49.138;10.090;2023-06-01T10:37:12;2.88;;;1.85;;
10313;SDS011;5202;49.138;10.090;2023-06-01T10:39:42;8.13;;;2.55;;
10313;SDS011;5202;49.138;10.090;2023-06-01T10:45:07;4.72;;;2.10;;
10313;SDS011;5202;49.138;10.090;2023-06-01T10:48:15;3.05;;;1.90;;
10313;SDS011;5202;49.138;10.090;2023-06-01T10:50:43;4.00;;;1.80;;
10313;SDS011;5202;49.138;10.090;2023-06-01T10:53:45;5.63;;;1.95;;
10313;SDS011;5202;49.138;10.090;2023-06-01T10:56:20;3.83;;;1.95;;
10313;SDS011;5202;49.138;10.090;2023-06-01T11:01:45;3.95;;;2.45;;
10313;SDS011;5202;49.138;10.090;2023-06-01T11:04:16;3.97;;;2.30;;
10313;SDS011;5202;49.138;10.090;2023-06-01T11:10:06;3.05;;;2.10;;
10313;SDS011;5202;49.138;10.090;2023-06-01T11:18:59;2.55;;;1.98;;
10313;SDS011;5202;49.138;10.090;2023-06-01T11:21:31;4.38;;;1.95;;
10313;SDS011;5202;49.138;10.090;2023-06-01T11:24:06;2.25;;;1.77;;
10313;SDS011;5202;49.138;10.090;2023-06-01T11:26:38;2.28;;;1.98;;
10313;SDS011;5202;49.138;10.090;2023-06-01T11:29:09;3.38;;;1.90;;
10313;SDS011;5202;49.138;10.090;2023-06-01T11:31:41;2.97;;;1.95;;
10313;SDS011;5202;49.138;10.090;2023-06-01T11:34:13;1.98;;;1.70;;
10313;SDS011;5202;49.138;10.090;2023-06-01T11:36:46;4.25;;;1.90;;
10313;SDS011;5202;49.138;10.090;2023-06-01T11:39:17;3.40;;;2.03;;
10313;SDS011;5202;49.138;10.090;2023-06-01T11:41:53;3.25;;;1.80;;
10313;SDS011;5202;49.138;10.090;2023-06-01T11:44:33;2.72;;;1.92;;
10313;SDS011;5202;49.138;10.090;2023-06-01T11:47:02;2.15;;;1.70;;
10313;SDS011;5202;49.138;10.090;2023-06-01T11:49:39;2.33;;;1.95;;
10313;SDS011;5202;49.138;10.090;2023-06-01T11:52:12;2.42;;;1.88;;
10313;SDS011;5202;49.138;10.090;2023-06-01T11:54:40;4.97;;;1.75;;
10313;SDS011;5202;49.138;10.090;2023-06-01T11:57:08;6.35;;;2.60;;
10313;SDS011;5202;49.138;10.090;2023-06-01T11:59:37;3.70;;;1.60;;
10313;SDS011;5202;49.138;10.090;2023-06-01T12:02:19;3.88;;;1.85;;
10313;SDS011;5202;49.138;10.090;2023-06-01T12:04:54;2.10;;;1.70;;
10313;SDS011;5202;49.138;10.090;2023-06-01T12:07:26;2.95;;;1.98;;
10313;SDS011;5202;49.138;10.090;2023-06-01T12:09:55;2.05;;;1.80;;
10313;SDS011;5202;49.138;10.090;2023-06-01T12:12:28;2.17;;;1.67;;
10313;SDS011;5202;49.138;10.090;2023-06-01T12:15:00;6.65;;;1.95;;
10313;SDS011;5202;49.138;10.090;2023-06-01T12:17:42;3.15;;;1.90;;
10313;SDS011;5202;49.138;10.090;2023-06-01T12:20:27;6.18;;;1.95;;
10313;SDS011;5202;49.138;10.090;2023-06-01T12:22:58;5.85;;;1.92;;
10313;SDS011;5202;49.138;10.090;2023-06-01T12:25:30;2.58;;;1.88;;
10313;SDS011;5202;49.138;10.090;2023-06-01T12:27:59;3.50;;;1.75;;
10313;SDS011;5202;49.138;10.090;2023-06-01T12:30:29;3.00;;;1.98;;
10313;SDS011;5202;49.138;10.090;2023-06-01T12:32:58;2.28;;;1.80;;
10313;SDS011;5202;49.138;10.090;2023-06-01T12:35:28;3.92;;;1.75;;
10313;SDS011;5202;49.138;10.090;2023-06-01T12:38:05;3.72;;;1.90;;
10313;SDS011;5202;49.138;10.090;2023-06-01T12:40:35;6.18;;;2.33;;
10313;SDS011;5202;49.138;10.090;2023-06-01T12:43:03;2.92;;;1.80;;
10313;SDS011;5202;49.138;10.090;2023-06-01T12:45:35;3.30;;;2.08;;
10313;SDS011;5202;49.138;10.090;2023-06-01T12:48:05;4.18;;;1.80;;
10313;SDS011;5202;49.138;10.090;2023-06-01T12:50:34;2.75;;;1.90;;
10313;SDS011;5202;49.138;10.090;2023-06-01T12:53:12;4.40;;;2.50;;
10313;SDS011;5202;49.138;10.090;2023-06-01T12:55:41;2.38;;;1.90;;
10313;SDS011;5202;49.138;10.090;2023-06-01T12:58:09;6.35;;;2.13;;
10313;SDS011;5202;49.138;10.090;2023-06-01T13:00:38;2.55;;;2.10;;
10313;SDS011;5202;49.138;10.090;2023-06-01T13:03:15;3.03;;;2.20;;
10313;SDS011;5202;49.138;10.090;2023-06-01T13:05:44;6.40;;;2.15;;
10313;SDS011;5202;49.138;10.090;2023-06-01T13:08:14;4.78;;;2.03;;
10313;SDS011;5202;49.138;10.090;2023-06-01T13:10:43;5.25;;;2.10;;
10313;SDS011;5202;49.138;10.090;2023-06-01T13:13:11;7.82;;;2.22;;
10313;SDS011;5202;49.138;10.090;2023-06-01T13:15:40;3.65;;;2.30;;
10313;SDS011;5202;49.138;10.090;2023-06-01T13:18:09;2.53;;;1.88;;
10313;SDS011;5202;49.138;10.090;2023-06-01T13:20:37;3.88;;;1.90;;
10313;SDS011;5202;49.138;10.090;2023-06-01T13:23:07;2.88;;;2.20;;
10313;SDS011;5202;49.138;10.090;2023-06-01T13:25:37;3.67;;;1.90;;
10313;SDS011;5202;49.138;10.090;2023-06-01T13:28:06;4.70;;;1.90;;
10313;SDS011;5202;49.138;10.090;2023-06-01T13:30:35;5.65;;;2.35;;
10313;SDS011;5202;49.138;10.090;2023-06-01T13:33:03;4.50;;;1.95;;
10313;SDS011;5202;49.138;10.090;2023-06-01T13:35:32;4.88;;;1.90;;
10313;SDS011;5202;49.138;10.090;2023-06-01T13:38:01;2.55;;;1.90;;
10313;SDS011;5202;49.138;10.090;2023-06-01T13:40:29;3.30;;;1.90;;
10313;SDS011;5202;49.138;10.090;2023-06-01T13:43:00;3.80;;;2.00;;
10313;SDS011;5202;49.138;10.090;2023-06-01T13:45:29;3.92;;;1.75;;
10313;SDS011;5202;49.138;10.090;2023-06-01T13:47:57;2.55;;;1.70;;
10313;SDS011;5202;49.138;10.090;2023-06-01T13:50:26;3.08;;;1.90;;
10313;SDS011;5202;49.138;10.090;2023-06-01T13:52:54;6.97;;;2.55;;
10313;SDS011;5202;49.138;10.090;2023-06-01T13:55:22;3.85;;;2.03;;
10313;SDS011;5202;49.138;10.090;2023-06-01T13:57:51;3.65;;;2.05;;
10313;SDS011;5202;49.138;10.090;2023-06-01T14:00:21;5.78;;;2.15;;
10313;SDS011;5202;49.138;10.090;2023-06-01T14:02:49;4.57;;;2.47;;
10313;SDS011;5202;49.138;10.090;2023-06-01T14:05:19;3.42;;;1.98;;
10313;SDS011;5202;49.138;10.090;2023-06-01T14:08:00;3.15;;;1.90;;
10313;SDS011;5202;49.138;10.090;2023-06-01T14:10:30;2.90;;;2.00;;
10313;SDS011;5202;49.138;10.090;2023-06-01T14:13:00;6.05;;;2.28;;
10313;SDS011;5202;49.138;10.090;2023-06-01T14:15:30;7.50;;;2.10;;
10313;SDS011;5202;49.138;10.090;2023-06-01T14:17:59;2.40;;;1.70;;
10313;SDS011;5202;49.138;10.090;2023-06-01T14:20:27;4.72;;;2.00;;
10313;SDS011;5202;49.138;10.090;2023-06-01T14:22:56;4.22;;;2.00;;
10313;SDS011;5202;49.138;10.090;2023-06-01T14:25:26;4.80;;;2.03;;
10313;SDS011;5202;49.138;10.090;2023-06-01T14:27:54;2.85;;;2.00;;
10313;SDS011;5202;49.138;10.090;2023-06-01T14:30:23;5.57;;;2.42;;
10313;SDS011;5202;49.138;10.090;2023-06-01T14:32:55;4.20;;;2.08;;
10313;SDS011;5202;49.138;10.090;2023-06-01T14:35:23;4.32;;;2.10;;
10313;SDS011;5202;49.138;10.090;2023-06-01T14:37:52;2.92;;;2.00;;
10313;SDS011;5202;49.138;10.090;2023-06-01T14:40:22;3.47;;;2.17;;
10313;SDS011;5202;49.138;10.090;2023-06-01T14:42:50;6.07;;;1.80;;
10313;SDS011;5202;49.138;10.090;2023-06-01T14:45:18;4.20;;;2.35;;
10313;SDS011;5202;49.138;10.090;2023-06-01T14:47:48;3.92;;;1.80;;
10313;SDS011;5202;49.138;10.090;2023-06-01T14:50:18;3.67;;;1.75;;
10313;SDS011;5202;49.138;10.090;2023-06-01T14:52:46;3.38;;;2.13;;
10313;SDS011;5202;49.138;10.090;2023-06-01T14:55:14;1.80;;;1.70;;
10313;SDS011;5202;49.138;10.090;2023-06-01T14:57:43;4.05;;;2.10;;
10313;SDS011;5202;49.138;10.090;2023-06-01T15:00:12;4.35;;;1.90;;
10313;SDS011;5202;49.138;10.090;2023-06-01T15:02:41;4.13;;;2.08;;
10313;SDS011;5202;49.138;10.090;2023-06-01T15:05:10;2.42;;;1.80;;
10313;SDS011;5202;49.138;10.090;2023-06-01T15:07:40;2.90;;;1.95;;
10313;SDS011;5202;49.138;10.090;2023-06-01T15:10:09;2.70;;;2.00;;
10313;SDS011;5202;49.138;10.090;2023-06-01T15:12:37;2.88;;;1.88;;
10313;SDS011;5202;49.138;10.090;2023-06-01T15:15:06;4.20;;;2.20;;
10313;SDS011;5202;49.138;10.090;2023-06-01T15:17:35;2.65;;;1.70;;
10313;SDS011;5202;49.138;10.090;2023-06-01T15:20:03;4.60;;;2.05;;
10313;SDS011;5202;49.138;10.090;2023-06-01T15:22:33;7.05;;;2.05;;
10313;SDS011;5202;49.138;10.090;2023-06-01T15:25:05;3.17;;;2.00;;
10313;SDS011;5202;49.138;10.090;2023-06-01T15:27:35;2.92;;;2.20;;